AirNav   Everest Fuels
 
 820 users online  

6FL3 Payson Ranch Airport
Punta Gorda, Florida, USA

GOING TO PUNTA GORDA?


FAA INFORMATION EFFECTIVE 13 AUGUST 2020

Location

FAA Identifier: 6FL3
Lat/Long: 26-56-14.2120N 081-34-01.2800W
26-56.236867N 081-34.021333W
26.9372811,-81.5670222
(estimated)
Elevation: 62 ft. / 19 m (estimated)
Variation: 03W (1990)
From city: 25 miles E of PUNTA GORDA, FL
Time zone: UTC -4 (UTC -5 during Standard Time)
Zip code: 33960

Airport Operations

Airport use: Private use. Permission required prior to landing
Activation date: 02/1993
Control tower: no
ARTCC: MIAMI CENTER
FSS: MIAMI FLIGHT SERVICE STATION
Attendance: UNATNDD
Segmented circle: no

Nearby radio navigation aids

VOR radial/distance  VOR name  Freq  Var
LBVr304/11.5LA BELLE VORTAC110.4001E
PGDr093/(22.7)PUNTA GORDA VOR110.2006W
RSWr027/26.9LEE COUNTY VORTAC111.8002W

Airport Services

Runway Information

Runway 1/19

Dimensions: 4000 x 50 ft. / 1219 x 15 m
Surface: asphalt
RUNWAY 1  RUNWAY 19
Traffic pattern: leftleft

Airport Ownership and Management from official FAA records

Ownership: Privately-owned
Owner: EVANS PROPERTIES INC.
PO BOX 1137
DADE CITY, FL 33526-1137
Phone 904-567-5661
Manager: WILLIAM O. STUBBS JR.
PO BOX 1137
DADE CITY, FL 33526-1137
Phone 904-567-5661

Additional Remarks

FOR CD CTC FORT MYERS APCH AT 239-768-1377, WHEN APCH CLSD CTC MIAMI ARTCC AT 305-716-1731.

Instrument Procedures

There are no published instrument procedures at 6FL3.

Some nearby airports with instrument procedures:

X14 - La Belle Municipal Airport (14 nm SE)
X06 - Arcadia Municipal Airport (21 nm NW)
KPGD - Punta Gorda Airport (23 nm W)
KRSW - Southwest Florida International Airport (26 nm SW)
KFMY - Page Field Airport (26 nm SW)
 
Loc | Ops | Rwys | IFR | FBO | Links
Com | Nav | Svcs | Stats | Notes


 
Area around 6FL3 (Payson Ranch Airport)
 
Road maps at: MapQuest Bing Google
 
Aerial photo
No photo
 
Sectional chart

 
Airport distance calculator
Flying to Payson Ranch Airport? Find the distance to fly.

From to 6FL3

Sunrise and sunset
Times for 14-Aug-2020
 Local
(UTC-4)
 Zulu
(UTC)
Morning civil twilight06:3410:34
Sunrise06:5910:59
Sunset20:0300:03
Evening civil twilight20:2700:27

Current date and time
Zulu (UTC)  14-Aug-2020 11:58:37
Local (UTC-4)  14-Aug-2020 07:58:37
 
METAR
KPGD 
23nm W 
141153Z 00000KT 10SM CLR 26/25 A3000 RMK AO2 SLP159 70090 T02560250 10256 20239 51006
KRSW 
26nm SW 
141153Z 08004KT 10SM CLR 26/24 A2999 RMK AO2 SLP153 70015 T02560244 10256 20244 51007
KFMY 
27nm SW 
141153Z 10SM CLR 26/25 A2998 RMK AO2 SLP154 70012 T02560250 10256 20244 51006
TAF
KPGD 
23nm W 
140520Z 1406/1506 VRB03KT P6SM SCT250 FM141500 17006KT P6SM SCT030 SCT250 FM141800 25007KT P6SM VCTS SCT040CB BKN250 FM150100 VRB03KT P6SM SCT040 BKN250
KRSW 
26nm SW 
140520Z 1406/1506 VRB03KT P6SM SCT250 FM141500 18006KT P6SM SCT030 SCT250 FM141800 24007KT P6SM VCTS SCT040CB BKN250 FM150100 VRB03KT P6SM SCT040 BKN250
KFMY 
27nm SW 
140520Z 1406/1506 VRB03KT P6SM SCT250 FM141500 18005KT P6SM SCT030 SCT250 FM141800 26007KT P6SM VCTS SCT040CB BKN250 FM150100 VRB03KT P6SM SCT040 BKN250
NOTAMs
Click for the latest NOTAMs
NOTAMs are issued by the DoD/FAA and will open in a separate window not controlled by AirNav.

 

 
 

Would you like to see your business listed on this page?

 If your business provides an interesting product or service to pilots, flight crews, aircraft, or users of the Payson Ranch Airport, you should consider listing it here.  To start the listing process, click on the button below
 
Add a business
 

Other Pages about Payson Ranch Airport

Update a link
 
Copyright © AirNav, LLC. All rights reserved. Privacy Policy  Contact